createdAt,value
2022-11-05T00:00:00.965Z,10.17
2022-11-05T00:01:01.168Z,10.18
2022-11-05T00:02:01.384Z,10.20
2022-11-05T00:03:01.629Z,10.17
2022-11-05T00:04:01.872Z,10.13
2022-11-05T00:05:02.047Z,10.13
2022-11-05T00:06:02.257Z,10.15
2022-11-05T00:07:02.437Z,10.10
2022-11-05T00:08:02.632Z,10.12
2022-11-05T00:09:02.827Z,10.12
2022-11-05T00:10:03.020Z,10.12
2022-11-05T00:11:03.219Z,10.10
2022-11-05T00:12:03.414Z,10.13
2022-11-05T00:13:03.685Z,10.12
2022-11-05T00:14:03.774Z,10.12
2022-11-05T00:15:03.964Z,10.09
2022-11-05T00:16:04.157Z,10.12
2022-11-05T00:17:04.343Z,10.10
2022-11-05T00:18:04.562Z,10.13
2022-11-05T00:19:04.744Z,10.10
2022-11-05T00:20:04.922Z,10.09
2022-11-05T00:21:05.111Z,10.06
2022-11-05T00:22:05.301Z,10.05
2022-11-05T00:23:05.506Z,10.05
2022-11-05T00:24:05.701Z,10.05
2022-11-05T00:25:05.871Z,10.06
2022-11-05T00:26:06.067Z,10.06
2022-11-05T00:27:06.230Z,10.06
2022-11-05T00:28:06.442Z,10.05
2022-11-05T00:29:06.619Z,10.06
2022-11-05T00:30:06.802Z,10.07
2022-11-05T00:31:06.984Z,10.05
2022-11-05T00:32:07.170Z,10.05
2022-11-05T00:33:07.532Z,10.03
2022-11-05T00:34:07.570Z,10.05
2022-11-05T00:35:07.773Z,10.06
2022-11-05T00:36:07.972Z,10.05
2022-11-05T00:37:08.159Z,10.06
2022-11-05T00:38:08.384Z,10.06
2022-11-05T00:39:08.568Z,10.06
2022-11-05T00:40:08.759Z,10.09
2022-11-05T00:41:08.938Z,10.07
2022-11-05T00:42:09.135Z,10.09
2022-11-05T00:43:09.640Z,10.06
2022-11-05T00:44:09.518Z,10.05
2022-11-05T00:45:09.710Z,10.05
2022-11-05T00:46:09.893Z,10.02
2022-11-05T00:47:10.067Z,10.03
2022-11-05T00:48:10.325Z,10.03
2022-11-05T00:49:10.403Z,10.02
2022-11-05T00:50:10.641Z,10.00
2022-11-05T00:51:10.770Z,10.00
2022-11-05T00:52:10.957Z,10.02
2022-11-05T00:53:11.556Z,9.99
2022-11-05T00:54:11.311Z,9.97
2022-11-05T00:55:11.500Z,10.02
2022-11-05T00:56:11.698Z,9.99
2022-11-05T00:57:11.875Z,10.00
2022-11-05T00:58:12.114Z,10.02
2022-11-05T00:59:12.285Z,10.00
2022-11-05T01:00:12.484Z,10.00
2022-11-05T01:01:12.723Z,9.97
2022-11-05T01:02:12.905Z,10.00
2022-11-05T01:03:13.502Z,10.00
2022-11-05T01:04:13.251Z,10.02
2022-11-05T01:05:13.455Z,10.02
2022-11-05T01:06:21.150Z,9.99
2022-11-05T01:07:13.867Z,10.00
2022-11-05T01:08:14.151Z,10.00
2022-11-05T01:09:14.199Z,9.99
2022-11-05T01:10:14.437Z,9.95
2022-11-05T01:11:15.614Z,9.97
2022-11-05T01:12:14.842Z,9.97
2022-11-05T01:13:15.233Z,9.99
2022-11-05T01:14:15.440Z,9.97
2022-11-05T01:15:15.504Z,10.00
2022-11-05T01:16:15.757Z,9.99
2022-11-05T01:17:15.914Z,9.99
2022-11-05T01:18:16.146Z,9.99
2022-11-05T01:19:16.372Z,9.95
2022-11-05T01:20:16.580Z,9.95
2022-11-05T01:21:16.787Z,9.97
2022-11-05T01:22:16.976Z,9.99
2022-11-05T01:23:17.409Z,10.00
2022-11-05T01:24:17.354Z,10.03
2022-11-05T01:25:17.548Z,10.00
2022-11-05T01:26:17.728Z,9.97
2022-11-05T01:27:17.923Z,9.94
2022-11-05T01:28:18.192Z,9.94
2022-11-05T01:29:18.259Z,9.97
2022-11-05T01:30:18.452Z,9.97
2022-11-05T01:31:18.647Z,9.92
2022-11-05T01:32:18.841Z,9.91
2022-11-05T01:33:19.043Z,9.92
2022-11-05T01:34:19.239Z,9.91
2022-11-05T01:35:19.441Z,9.90
2022-11-05T01:36:19.664Z,9.90
2022-11-05T01:37:19.860Z,9.87
2022-11-05T01:38:20.101Z,9.87
2022-11-05T01:39:20.271Z,9.85
2022-11-05T01:40:20.495Z,9.85
2022-11-05T01:41:20.680Z,9.84
2022-11-05T01:42:20.885Z,9.82
2022-11-05T01:43:21.093Z,9.82
2022-11-05T01:44:21.297Z,9.81
2022-11-05T01:45:21.502Z,9.77
2022-11-05T01:46:21.711Z,9.77
2022-11-05T01:47:21.894Z,9.80
2022-11-05T01:48:22.132Z,9.80
2022-11-05T01:49:22.325Z,9.77
2022-11-05T01:50:22.519Z,9.77
2022-11-05T01:51:22.700Z,9.77
2022-11-05T01:52:22.887Z,9.74
2022-11-05T01:53:23.103Z,9.73
2022-11-05T01:54:23.288Z,9.73
2022-11-05T01:55:23.456Z,9.74
2022-11-05T01:56:23.646Z,9.70
2022-11-05T01:57:23.830Z,9.67
2022-11-05T01:58:24.038Z,9.69
2022-11-05T01:59:24.216Z,9.70
2022-11-05T02:00:24.406Z,9.70
2022-11-05T02:01:24.695Z,9.69
2022-11-05T02:02:24.934Z,9.67
2022-11-05T02:03:25.091Z,9.64
2022-11-05T02:04:25.237Z,9.64
2022-11-05T02:05:25.315Z,9.63
2022-11-05T02:06:25.519Z,9.59
2022-11-05T02:07:25.714Z,9.58
2022-11-05T02:08:25.934Z,9.64
2022-11-05T02:09:26.135Z,9.59
2022-11-05T02:10:26.333Z,9.56
2022-11-05T02:11:26.528Z,9.54
2022-11-05T02:12:26.718Z,9.54
2022-11-05T02:13:26.932Z,9.55
2022-11-05T02:14:27.133Z,9.56
2022-11-05T02:15:27.388Z,9.56
2022-11-05T02:16:27.559Z,9.52
2022-11-05T02:17:27.753Z,9.49
2022-11-05T02:18:27.972Z,9.49
2022-11-05T02:19:28.161Z,9.51
2022-11-05T02:20:28.353Z,9.51
2022-11-05T02:21:28.584Z,9.49
2022-11-05T02:22:28.918Z,9.47
2022-11-05T02:23:29.022Z,9.48
2022-11-05T02:24:29.231Z,9.49
2022-11-05T02:25:29.430Z,9.51
2022-11-05T02:26:29.637Z,9.51
2022-11-05T02:27:29.822Z,9.48
2022-11-05T02:28:30.052Z,9.44
2022-11-05T02:29:30.253Z,9.42
2022-11-05T02:30:30.467Z,9.39
2022-11-05T02:31:31.638Z,9.37
2022-11-05T02:32:30.852Z,9.34
2022-11-05T02:33:31.068Z,9.33
2022-11-05T02:34:31.280Z,9.33
2022-11-05T02:35:31.490Z,9.31
2022-11-05T02:36:31.689Z,9.30
2022-11-05T02:37:31.889Z,9.29
2022-11-05T02:38:32.106Z,9.29
2022-11-05T02:39:32.303Z,9.27
2022-11-05T02:40:32.516Z,9.29
2022-11-05T02:41:32.748Z,9.27
2022-11-05T02:42:32.948Z,9.27
2022-11-05T02:43:33.193Z,9.26
2022-11-05T02:44:33.385Z,9.26
2022-11-05T02:45:33.586Z,9.24
2022-11-05T02:46:33.787Z,9.24
2022-11-05T02:47:33.984Z,9.21
2022-11-05T02:48:34.196Z,9.21
2022-11-05T02:49:34.388Z,9.21
2022-11-05T02:50:34.583Z,9.21
2022-11-05T02:51:34.775Z,9.21
2022-11-05T02:52:34.972Z,9.18
2022-11-05T02:53:35.195Z,9.19
2022-11-05T02:54:35.397Z,9.18
2022-11-05T02:55:35.603Z,9.16
2022-11-05T02:56:35.792Z,9.16
2022-11-05T02:57:36.036Z,9.18
2022-11-05T02:58:36.252Z,9.16
2022-11-05T02:59:36.446Z,9.18
2022-11-05T03:00:36.655Z,9.18
2022-11-05T03:01:36.973Z,9.16
2022-11-05T03:02:37.212Z,9.16
2022-11-05T03:03:37.320Z,9.16
2022-11-05T03:04:37.522Z,9.15
2022-11-05T03:05:37.727Z,9.18
2022-11-05T03:06:37.944Z,9.18
2022-11-05T03:07:38.123Z,9.18
2022-11-05T03:08:38.350Z,9.19
2022-11-05T03:09:38.572Z,9.19
2022-11-05T03:10:38.791Z,9.18
2022-11-05T03:11:38.989Z,9.15
2022-11-05T03:12:39.198Z,9.15
2022-11-05T03:13:39.413Z,9.16
2022-11-05T03:14:39.609Z,9.13
2022-11-05T03:15:39.820Z,9.15
2022-11-05T03:16:40.021Z,9.16
2022-11-05T03:17:40.223Z,9.15
2022-11-05T03:18:40.426Z,9.15
2022-11-05T03:19:40.626Z,9.15
2022-11-05T03:20:40.825Z,9.15
2022-11-05T03:21:41.027Z,9.15
2022-11-05T03:22:41.228Z,9.15
2022-11-05T03:23:41.435Z,9.15
2022-11-05T03:24:41.641Z,9.13
2022-11-05T03:25:41.830Z,9.15
2022-11-05T03:26:42.046Z,9.12
2022-11-05T03:27:42.262Z,9.11
2022-11-05T03:28:42.469Z,9.09
2022-11-05T03:29:42.655Z,9.08
2022-11-05T03:30:42.845Z,9.09
2022-11-05T03:31:43.046Z,9.08
2022-11-05T03:32:43.244Z,9.08
2022-11-05T03:33:43.451Z,9.08
2022-11-05T03:34:43.679Z,9.11
2022-11-05T03:35:43.874Z,9.08
2022-11-05T03:36:44.076Z,9.05
2022-11-05T03:37:44.258Z,9.05
2022-11-05T03:38:44.472Z,9.05
2022-11-05T03:39:44.673Z,9.08
2022-11-05T03:40:44.864Z,9.05
2022-11-05T03:41:45.051Z,9.09
2022-11-05T03:42:45.251Z,9.11
2022-11-05T03:43:45.463Z,9.08
2022-11-05T03:44:46.632Z,9.03
2022-11-05T03:45:45.832Z,9.03
2022-11-05T03:46:46.019Z,9.02
2022-11-05T03:47:46.212Z,9.03
2022-11-05T03:48:46.501Z,9.03
2022-11-05T03:49:46.615Z,8.99
2022-11-05T03:50:46.827Z,8.96
2022-11-05T03:51:47.018Z,8.96
2022-11-05T03:52:47.212Z,8.96
2022-11-05T03:53:47.440Z,8.96
2022-11-05T03:54:47.645Z,8.96
2022-11-05T03:55:47.862Z,8.92
2022-11-05T03:56:48.076Z,8.93
2022-11-05T03:57:48.278Z,8.92
2022-11-05T03:58:48.504Z,8.93
2022-11-05T03:59:48.707Z,8.93
2022-11-05T04:00:48.909Z,8.93
2022-11-05T04:01:49.225Z,8.92
2022-11-05T04:02:49.445Z,8.90
2022-11-05T04:03:49.517Z,8.89
2022-11-05T04:04:49.626Z,8.90
2022-11-05T04:05:49.828Z,8.87
2022-11-05T04:06:50.031Z,8.84
2022-11-05T04:07:51.187Z,8.81
2022-11-05T04:08:50.405Z,8.79
2022-11-05T04:09:50.602Z,8.79
2022-11-05T04:10:50.790Z,8.81
2022-11-05T04:11:50.985Z,8.82
2022-11-05T04:12:51.181Z,8.82
2022-11-05T04:13:51.405Z,8.82
2022-11-05T04:14:51.604Z,8.81
2022-11-05T04:15:51.792Z,8.82
2022-11-05T04:16:52.002Z,8.81
2022-11-05T04:17:52.197Z,8.77
2022-11-05T04:18:52.413Z,8.78
2022-11-05T04:19:52.603Z,8.78
2022-11-05T04:20:52.807Z,8.77
2022-11-05T04:21:53.018Z,8.74
2022-11-05T04:22:53.205Z,8.75
2022-11-05T04:23:53.431Z,8.74
2022-11-05T04:24:53.626Z,8.71
2022-11-05T04:25:53.831Z,8.72
2022-11-05T04:26:54.027Z,8.69
2022-11-05T04:27:54.221Z,8.68
2022-11-05T04:28:54.458Z,8.63
2022-11-05T04:29:54.655Z,8.60
2022-11-05T04:30:54.841Z,8.61
2022-11-05T04:31:55.033Z,8.60
2022-11-05T04:32:55.228Z,8.60
2022-11-05T04:33:55.439Z,8.60
2022-11-05T04:34:55.624Z,8.57
2022-11-05T04:35:55.846Z,8.56
2022-11-05T04:36:56.038Z,8.54
2022-11-05T04:37:56.241Z,8.52
2022-11-05T04:38:56.436Z,8.50
2022-11-05T04:39:56.642Z,8.50
2022-11-05T04:40:56.860Z,8.54
2022-11-05T04:41:57.058Z,8.54
2022-11-05T04:42:57.232Z,8.50
2022-11-05T04:43:57.448Z,8.49
2022-11-05T04:44:57.651Z,8.49
2022-11-05T04:45:57.876Z,8.49
2022-11-05T04:46:58.076Z,8.49
2022-11-05T04:47:58.262Z,8.50
2022-11-05T04:48:58.474Z,8.50
2022-11-05T04:49:58.673Z,8.49
2022-11-05T04:50:58.885Z,8.50
2022-11-05T04:52:00.063Z,8.49
2022-11-05T04:52:59.250Z,8.46
2022-11-05T04:53:59.464Z,8.45
2022-11-05T04:54:59.658Z,8.42
2022-11-05T04:55:59.881Z,8.45
2022-11-05T04:57:00.124Z,8.42
2022-11-05T04:58:00.338Z,8.41
2022-11-05T04:59:00.553Z,8.42
2022-11-05T05:00:00.760Z,8.42
2022-11-05T05:01:01.987Z,8.39
2022-11-05T05:02:01.193Z,8.39
2022-11-05T05:03:01.328Z,8.41
2022-11-05T05:04:01.639Z,8.39
2022-11-05T05:05:01.771Z,8.39
2022-11-05T05:06:03.904Z,8.39
2022-11-05T05:07:02.220Z,8.38
2022-11-05T05:08:02.427Z,8.36
2022-11-05T05:09:02.645Z,8.36
2022-11-05T05:10:02.841Z,8.36
2022-11-05T05:11:03.049Z,8.34
2022-11-05T05:12:03.256Z,8.34
2022-11-05T05:13:03.450Z,8.34
2022-11-05T05:14:03.709Z,8.32
2022-11-05T05:15:03.912Z,8.31
2022-11-05T05:16:04.110Z,8.27
2022-11-05T05:17:04.307Z,8.28
2022-11-05T05:18:04.513Z,8.28
2022-11-05T05:19:05.248Z,8.31
2022-11-05T05:20:04.896Z,8.28
2022-11-05T05:21:05.099Z,8.27
2022-11-05T05:22:05.299Z,8.27
2022-11-05T05:23:05.492Z,8.28
2022-11-05T05:24:05.705Z,8.28
2022-11-05T05:25:05.905Z,8.31
2022-11-05T05:26:06.111Z,8.28
2022-11-05T05:27:06.322Z,8.26
2022-11-05T05:28:07.507Z,8.26
2022-11-05T05:29:06.726Z,8.21
2022-11-05T05:30:06.928Z,8.23
2022-11-05T05:31:07.130Z,8.23
2022-11-05T05:32:08.295Z,8.23
2022-11-05T05:33:07.511Z,8.23
2022-11-05T05:34:07.746Z,8.21
2022-11-05T05:35:07.975Z,8.21
2022-11-05T05:36:11.304Z,8.20
2022-11-05T05:37:08.354Z,8.20
2022-11-05T05:38:08.572Z,8.18
2022-11-05T05:39:08.823Z,8.17
2022-11-05T05:40:09.042Z,8.16
2022-11-05T05:41:09.261Z,8.13
2022-11-05T05:42:09.485Z,8.14
2022-11-05T05:43:09.997Z,8.16
2022-11-05T05:44:09.887Z,8.16
2022-11-05T05:45:09.987Z,8.13
2022-11-05T05:46:10.211Z,8.13
2022-11-05T05:47:10.437Z,8.13
2022-11-05T05:48:10.652Z,8.09
2022-11-05T05:49:12.495Z,8.09
2022-11-05T05:50:11.034Z,8.09
2022-11-05T05:51:11.267Z,8.08
2022-11-05T05:52:11.481Z,8.06
2022-11-05T05:53:12.081Z,8.02
2022-11-05T05:54:11.943Z,7.99
2022-11-05T05:55:12.154Z,7.99
2022-11-05T05:56:12.368Z,8.01
2022-11-05T05:57:12.567Z,8.02
2022-11-05T05:58:12.787Z,8.02
2022-11-05T05:59:13.019Z,8.03
2022-11-05T06:00:13.225Z,8.01
2022-11-05T06:01:18.616Z,8.01
2022-11-05T06:02:14.715Z,8.01
2022-11-05T06:03:14.410Z,7.98
2022-11-05T06:04:14.155Z,7.96
2022-11-05T06:05:14.228Z,7.98
2022-11-05T06:06:14.436Z,7.98
2022-11-05T06:07:14.656Z,7.98
2022-11-05T06:08:14.870Z,7.98
2022-11-05T06:09:15.091Z,7.99
2022-11-05T06:10:15.386Z,7.98
2022-11-05T06:11:15.494Z,7.95
2022-11-05T06:12:15.700Z,7.98
2022-11-05T06:13:15.908Z,7.96
2022-11-05T06:14:16.153Z,7.96
2022-11-05T06:15:16.357Z,7.96
2022-11-05T06:16:16.576Z,7.95
2022-11-05T06:17:16.779Z,7.95
2022-11-05T06:18:16.984Z,7.93
2022-11-05T06:19:17.203Z,7.91
2022-11-05T06:20:17.405Z,7.90
2022-11-05T06:21:17.606Z,7.91
2022-11-05T06:22:17.825Z,7.88
2022-11-05T06:23:18.033Z,7.87
2022-11-05T06:24:18.249Z,7.87
2022-11-05T06:25:18.441Z,7.88
2022-11-05T06:26:18.651Z,7.91
2022-11-05T06:27:18.853Z,7.91
2022-11-05T06:28:19.052Z,7.90
2022-11-05T06:29:19.271Z,7.90
2022-11-05T06:30:19.480Z,7.88
2022-11-05T06:31:19.684Z,7.85
2022-11-05T06:32:19.889Z,7.87
2022-11-05T06:33:20.094Z,7.88
2022-11-05T06:34:20.315Z,7.88
2022-11-05T06:35:20.540Z,7.88
2022-11-05T06:36:21.707Z,7.85
2022-11-05T06:37:20.923Z,7.85
2022-11-05T06:38:21.137Z,7.84
2022-11-05T06:39:21.365Z,7.83
2022-11-05T06:40:21.546Z,7.83
2022-11-05T06:41:21.766Z,7.85
2022-11-05T06:42:21.969Z,7.85
2022-11-05T06:43:22.170Z,7.85
2022-11-05T06:44:22.388Z,7.85
2022-11-05T06:45:22.590Z,7.85
2022-11-05T06:46:22.798Z,7.84
2022-11-05T06:47:22.997Z,7.87
2022-11-05T06:48:23.194Z,7.87
2022-11-05T06:49:23.411Z,7.87
2022-11-05T06:50:23.624Z,7.90
2022-11-05T06:51:23.822Z,7.88
2022-11-05T06:52:24.029Z,7.91
2022-11-05T06:53:24.246Z,7.96
2022-11-05T06:54:24.461Z,8.06
2022-11-05T06:55:24.661Z,8.06
2022-11-05T06:56:24.863Z,8.05
2022-11-05T06:57:25.078Z,8.05
2022-11-05T06:58:25.284Z,8.02
2022-11-05T06:59:25.485Z,8.02
2022-11-05T07:00:25.697Z,7.99
2022-11-05T07:01:26.004Z,8.01
2022-11-05T07:02:26.221Z,8.02
2022-11-05T07:03:26.338Z,8.05
2022-11-05T07:04:26.585Z,8.08
2022-11-05T07:05:26.810Z,8.11
2022-11-05T07:06:37.010Z,8.08
2022-11-05T07:07:27.182Z,8.03
2022-11-05T07:08:27.389Z,8.01
2022-11-05T07:09:27.618Z,8.02
2022-11-05T07:10:27.755Z,8.01
2022-11-05T07:11:27.947Z,8.01
2022-11-05T07:12:28.142Z,7.98
2022-11-05T07:13:28.337Z,7.98
2022-11-05T07:14:28.658Z,7.96
2022-11-05T07:15:28.785Z,8.02
2022-11-05T07:16:28.988Z,8.03
2022-11-05T07:17:29.208Z,8.09
2022-11-05T07:18:29.423Z,8.16
2022-11-05T07:19:29.637Z,8.17
2022-11-05T07:20:33.801Z,8.14
2022-11-05T07:21:30.083Z,8.09
2022-11-05T07:22:30.307Z,8.08
2022-11-05T07:23:30.528Z,8.16
2022-11-05T07:24:30.786Z,8.16
2022-11-05T07:25:30.984Z,8.16
2022-11-05T07:26:34.490Z,8.18
2022-11-05T07:27:31.492Z,8.23
2022-11-05T07:28:31.606Z,8.26
2022-11-05T07:29:31.863Z,8.27
2022-11-05T07:30:32.047Z,8.32
2022-11-05T07:31:32.272Z,8.32
2022-11-05T07:32:32.513Z,8.31
2022-11-05T07:33:36.541Z,8.31
2022-11-05T07:34:32.832Z,8.36
2022-11-05T07:35:33.046Z,8.38
2022-11-05T07:36:33.252Z,8.39
2022-11-05T07:37:33.457Z,8.42
2022-11-05T07:38:33.712Z,8.50
2022-11-05T07:39:33.977Z,8.53
2022-11-05T07:40:34.146Z,8.57
2022-11-05T07:41:34.373Z,8.64
2022-11-05T07:42:34.587Z,8.68
2022-11-05T07:43:34.792Z,8.68
2022-11-05T07:44:35.019Z,8.72
2022-11-05T07:45:35.228Z,8.79
2022-11-05T07:46:35.434Z,9.00
2022-11-05T07:47:35.629Z,9.37
2022-11-05T07:48:35.839Z,9.94
2022-11-05T07:49:36.797Z,10.51
2022-11-05T07:50:36.209Z,10.62
2022-11-05T07:51:36.618Z,10.55
2022-11-05T07:52:36.588Z,10.42
2022-11-05T07:53:39.829Z,10.51
2022-11-05T07:54:38.998Z,10.92
2022-11-05T07:55:37.053Z,11.07
2022-11-05T07:56:37.246Z,10.83
2022-11-05T07:57:37.450Z,10.48
2022-11-05T07:58:37.622Z,10.17
2022-11-05T07:59:37.808Z,9.99
2022-11-05T08:00:38.097Z,9.88
2022-11-05T08:01:38.338Z,9.84
2022-11-05T08:02:38.451Z,9.76
2022-11-05T08:03:38.609Z,9.70
2022-11-05T08:04:38.707Z,9.70
2022-11-05T08:05:38.956Z,9.72
2022-11-05T08:06:39.105Z,9.66
2022-11-05T08:07:39.293Z,9.73
2022-11-05T08:08:39.473Z,9.87
2022-11-05T08:09:39.656Z,9.90
2022-11-05T08:10:39.839Z,10.02
2022-11-05T08:11:40.042Z,10.51
2022-11-05T08:12:40.248Z,11.13
2022-11-05T08:13:40.426Z,11.73
2022-11-05T08:14:40.585Z,12.43
2022-11-05T08:15:40.762Z,13.09
2022-11-05T08:16:40.939Z,13.68
2022-11-05T08:17:42.055Z,13.93
2022-11-05T08:18:41.967Z,14.30
2022-11-05T08:19:41.389Z,14.89
2022-11-05T08:20:41.574Z,14.96
2022-11-05T08:21:41.718Z,15.14
2022-11-05T08:22:41.877Z,15.51
2022-11-05T08:23:42.039Z,15.80
2022-11-05T08:24:42.183Z,16.08
2022-11-05T08:25:42.342Z,15.59
2022-11-05T08:26:42.476Z,14.94
2022-11-05T08:27:42.613Z,14.43
2022-11-05T08:28:42.747Z,13.95
2022-11-05T08:29:42.890Z,13.03
2022-11-05T08:30:43.049Z,12.35
2022-11-05T08:31:43.208Z,11.74
2022-11-05T08:32:43.346Z,11.44
2022-11-05T08:33:43.495Z,11.44
2022-11-05T08:34:43.628Z,11.74
2022-11-05T08:35:43.809Z,11.67
2022-11-05T08:36:43.992Z,11.45
2022-11-05T08:37:44.118Z,11.34
2022-11-05T08:38:44.264Z,11.27
2022-11-05T08:39:44.425Z,11.40
2022-11-05T08:40:44.601Z,11.48
2022-11-05T08:41:44.751Z,11.80
2022-11-05T08:42:44.912Z,12.57
2022-11-05T08:43:45.061Z,13.46
2022-11-05T08:44:45.211Z,14.34
2022-11-05T08:45:45.377Z,15.14
2022-11-05T08:46:45.521Z,15.72
2022-11-05T08:47:45.659Z,15.84
2022-11-05T08:48:45.797Z,15.84
2022-11-05T08:49:45.930Z,15.66
2022-11-05T08:50:46.100Z,15.84
2022-11-05T08:51:46.230Z,15.84
2022-11-05T08:52:46.352Z,15.73
2022-11-05T08:53:46.485Z,15.41
2022-11-05T08:54:46.611Z,15.29
2022-11-05T08:55:46.760Z,15.90
2022-11-05T08:56:46.873Z,16.24
2022-11-05T08:57:46.988Z,16.87
2022-11-05T08:58:47.097Z,17.41
2022-11-05T08:59:47.239Z,17.66
2022-11-05T09:00:47.404Z,18.12
2022-11-05T09:01:47.616Z,18.30
2022-11-05T09:02:47.507Z,18.55
2022-11-05T09:03:47.639Z,18.78
2022-11-05T09:04:47.757Z,18.94
2022-11-05T09:05:47.877Z,19.20
2022-11-05T09:06:47.994Z,19.07
2022-11-05T09:07:48.078Z,18.83
2022-11-05T09:08:48.188Z,18.71
2022-11-05T09:09:48.280Z,18.66
2022-11-05T09:10:48.468Z,18.46
2022-11-05T09:12:11.041Z,18.51
2022-11-05T09:12:49.509Z,18.52
2022-11-05T09:13:48.588Z,18.52
2022-11-05T09:14:48.665Z,18.23
2022-11-05T09:15:48.805Z,17.76
2022-11-05T09:16:48.797Z,17.75
2022-11-05T09:17:48.885Z,17.71
2022-11-05T09:18:48.979Z,17.75
2022-11-05T09:19:49.073Z,17.75
2022-11-05T09:20:49.185Z,18.21
2022-11-05T09:21:49.272Z,17.93
2022-11-05T09:22:49.347Z,18.08
2022-11-05T09:23:49.443Z,18.18
2022-11-05T09:24:49.509Z,18.39
2022-11-05T09:25:49.623Z,18.18
2022-11-05T09:26:49.727Z,18.39
2022-11-05T09:27:49.810Z,18.48
2022-11-05T09:28:49.894Z,18.58
2022-11-05T09:29:49.987Z,18.42
2022-11-05T09:30:50.107Z,18.42
2022-11-05T09:31:50.158Z,18.45
2022-11-05T09:32:50.239Z,18.64
2022-11-05T09:33:50.333Z,18.42
2022-11-05T09:34:50.416Z,18.60
2022-11-05T09:35:50.527Z,18.34
2022-11-05T09:36:50.620Z,18.23
2022-11-05T09:37:50.698Z,18.21
2022-11-05T09:38:50.821Z,18.11
2022-11-05T09:39:50.894Z,17.95
2022-11-05T09:40:50.982Z,17.79
2022-11-05T09:41:51.060Z,17.82
2022-11-05T09:42:51.146Z,18.08
2022-11-05T09:43:51.218Z,18.48
2022-11-05T09:44:51.301Z,18.55
2022-11-05T09:45:51.415Z,18.45
2022-11-05T09:46:51.371Z,18.48
2022-11-05T09:47:51.441Z,18.57
2022-11-05T09:48:51.535Z,18.12
2022-11-05T09:49:51.603Z,18.45
2022-11-05T09:50:51.690Z,19.11
2022-11-05T09:51:51.770Z,19.15
2022-11-05T09:52:51.829Z,19.22
2022-11-05T09:53:51.910Z,19.55
2022-11-05T09:54:51.991Z,19.71
2022-11-05T09:55:52.098Z,19.67
2022-11-05T09:56:52.046Z,19.11
2022-11-05T09:57:52.120Z,19.37
2022-11-05T09:58:52.169Z,19.32
2022-11-05T09:59:52.233Z,19.48
2022-11-05T10:00:52.391Z,19.84
2022-11-05T10:01:52.502Z,19.81
2022-11-05T10:02:52.400Z,20.08
2022-11-05T10:03:52.454Z,19.72
2022-11-05T10:04:52.606Z,19.53
2022-11-05T10:05:52.667Z,19.53
2022-11-05T10:06:52.639Z,19.38
2022-11-05T10:07:52.734Z,19.30
2022-11-05T10:08:52.812Z,19.37
2022-11-05T10:09:52.858Z,19.59
2022-11-05T10:10:52.925Z,19.26
2022-11-05T10:11:52.986Z,19.37
2022-11-05T10:12:53.039Z,19.67
2022-11-05T10:13:53.090Z,19.81
2022-11-05T10:14:53.129Z,19.87
2022-11-05T10:15:53.212Z,19.64
2022-11-05T10:16:53.263Z,19.82
2022-11-05T10:17:53.311Z,19.82
2022-11-05T10:18:53.367Z,20.03
2022-11-05T10:19:53.424Z,20.48
2022-11-05T10:20:53.510Z,20.83
2022-11-05T10:22:06.124Z,21.10
2022-11-05T10:22:54.576Z,21.45
2022-11-05T10:23:53.634Z,21.54
2022-11-05T10:24:53.714Z,21.37
2022-11-05T10:25:53.787Z,20.93
2022-11-05T10:26:53.832Z,21.01
2022-11-05T10:27:53.886Z,21.00
2022-11-05T10:28:53.939Z,20.77
2022-11-05T10:29:53.977Z,21.01
2022-11-05T10:30:54.044Z,20.86
2022-11-05T10:31:54.093Z,21.20
2022-11-05T10:32:54.134Z,21.44
2022-11-05T10:33:54.216Z,21.63
2022-11-05T10:34:54.268Z,21.91
2022-11-05T10:35:54.331Z,21.72
2022-11-05T10:36:54.389Z,21.74
2022-11-05T10:37:54.426Z,21.77
2022-11-05T10:38:54.477Z,21.58
2022-11-05T10:39:54.523Z,21.85
2022-11-05T10:40:54.577Z,21.60
2022-11-05T10:41:54.623Z,21.29
2022-11-05T10:42:54.684Z,20.85
2022-11-05T10:43:54.740Z,20.77
2022-11-05T10:44:54.801Z,20.19
2022-11-05T10:45:54.867Z,20.29
2022-11-05T10:46:54.924Z,20.71
2022-11-05T10:47:54.963Z,20.98
2022-11-05T10:48:55.005Z,21.15
2022-11-05T10:49:55.059Z,21.11
2022-11-05T10:50:55.113Z,21.08
2022-11-05T10:51:55.177Z,20.71
2022-11-05T10:52:55.226Z,20.92
2022-11-05T10:54:00.503Z,21.41
2022-11-05T10:54:56.297Z,21.92
2022-11-05T10:55:55.498Z,22.25
2022-11-05T10:56:55.426Z,22.59
2022-11-05T10:57:55.459Z,23.06
2022-11-05T10:58:55.512Z,22.95
2022-11-05T10:59:55.549Z,22.46
2022-11-05T11:00:55.683Z,21.94
2022-11-05T11:01:55.744Z,21.75
2022-11-05T11:02:55.996Z,21.19
2022-11-05T11:03:55.711Z,20.73
2022-11-05T11:04:55.750Z,20.71
2022-11-05T11:05:55.886Z,21.37
2022-11-05T11:06:55.827Z,21.62
2022-11-05T11:07:55.854Z,21.77
2022-11-05T11:08:55.865Z,21.66
2022-11-05T11:09:55.902Z,21.94
2022-11-05T11:10:55.986Z,22.44
2022-11-05T11:11:55.952Z,22.33
2022-11-05T11:12:55.956Z,22.07
2022-11-05T11:13:55.995Z,21.84
2022-11-05T11:14:56.023Z,21.77
2022-11-05T11:15:56.083Z,21.88
2022-11-05T11:16:56.113Z,21.14
2022-11-05T11:17:56.157Z,20.67
2022-11-05T11:18:56.176Z,20.60
2022-11-05T11:19:56.215Z,20.50
2022-11-05T11:20:56.267Z,20.92
2022-11-05T11:21:56.325Z,20.80
2022-11-05T11:22:56.378Z,20.96
2022-11-05T11:23:56.437Z,21.00
2022-11-05T11:24:56.484Z,20.89
2022-11-05T11:25:56.571Z,21.08
2022-11-05T11:26:56.512Z,21.44
2022-11-05T11:27:56.550Z,21.72
2022-11-05T11:28:56.584Z,22.07
2022-11-05T11:29:56.622Z,22.10
2022-11-05T11:30:56.705Z,21.88
2022-11-05T11:31:56.678Z,21.22
2022-11-05T11:32:56.612Z,20.93
2022-11-05T11:33:56.638Z,20.67
2022-11-05T11:34:56.679Z,20.52
2022-11-05T11:35:56.752Z,20.68
2022-11-05T11:36:56.813Z,20.89
2022-11-05T11:37:56.880Z,20.67
2022-11-05T11:38:56.910Z,21.08
2022-11-05T11:39:56.959Z,21.48
2022-11-05T11:40:57.015Z,21.94
2022-11-05T11:41:57.062Z,22.15
2022-11-05T11:42:57.146Z,21.23
2022-11-05T11:43:57.163Z,20.00
2022-11-05T11:44:57.240Z,19.12
2022-11-05T11:46:03.703Z,18.86
2022-11-05T11:46:58.330Z,18.92
2022-11-05T11:47:57.378Z,18.37
2022-11-05T11:48:57.421Z,18.63
2022-11-05T11:49:57.480Z,18.73
2022-11-05T11:50:57.576Z,18.12
2022-11-05T11:51:57.619Z,18.26
2022-11-05T11:52:57.698Z,18.28
2022-11-05T11:53:57.771Z,17.37
2022-11-05T11:54:57.843Z,16.89
2022-11-05T11:55:57.959Z,17.35
2022-11-05T11:56:58.039Z,17.44
2022-11-05T11:57:58.132Z,16.92
2022-11-05T11:58:58.208Z,16.91
2022-11-05T12:00:13.672Z,17.72
2022-11-05T12:00:59.354Z,18.60
2022-11-05T12:01:58.598Z,19.78
2022-11-05T12:03:01.772Z,19.94
2022-11-05T12:03:58.579Z,19.99
2022-11-05T12:04:58.665Z,20.04
2022-11-05T12:05:58.779Z,19.56
2022-11-05T12:06:58.859Z,18.23
2022-11-05T12:07:58.944Z,17.01
2022-11-05T12:09:05.331Z,16.43
2022-11-05T12:10:00.094Z,16.17
2022-11-05T12:10:59.172Z,17.41
2022-11-05T12:11:59.287Z,17.73
2022-11-05T12:12:59.382Z,17.94
2022-11-05T12:13:59.499Z,17.27
2022-11-05T12:14:59.636Z,17.24
2022-11-05T12:15:59.815Z,17.79
2022-11-05T12:16:59.816Z,17.65
2022-11-05T12:17:59.917Z,18.26
2022-11-05T12:19:00.011Z,18.68
2022-11-05T12:20:00.125Z,18.41
2022-11-05T12:21:00.210Z,18.82
2022-11-05T12:22:00.319Z,19.00
2022-11-05T12:23:00.429Z,18.61
2022-11-05T12:24:00.522Z,17.88
2022-11-05T12:25:00.634Z,17.30
2022-11-05T12:26:00.741Z,17.56
2022-11-05T12:27:00.859Z,17.01
2022-11-05T12:28:00.953Z,16.34
2022-11-05T12:30:02.108Z,17.53
2022-11-05T12:31:01.206Z,17.23
2022-11-05T12:32:01.341Z,16.87
2022-11-05T12:33:01.518Z,16.62
2022-11-05T12:34:01.568Z,16.21
2022-11-05T12:35:01.705Z,16.40
2022-11-05T12:36:01.831Z,16.57
2022-11-05T12:37:01.963Z,16.24
2022-11-05T12:38:02.103Z,16.43
2022-11-05T12:39:02.244Z,17.07
2022-11-05T12:40:02.396Z,16.99
2022-11-05T12:41:02.472Z,16.92
2022-11-05T12:42:02.610Z,17.20
2022-11-05T12:43:04.420Z,18.02
2022-11-05T12:44:03.808Z,18.33
2022-11-05T12:45:02.905Z,18.18
2022-11-05T12:46:03.009Z,18.53
2022-11-05T12:47:03.129Z,18.18
2022-11-05T12:48:03.221Z,17.17
2022-11-05T12:49:03.324Z,17.14
2022-11-05T12:50:03.423Z,16.54
2022-11-05T12:51:03.531Z,15.80
2022-11-05T12:52:03.649Z,15.33
2022-11-05T12:53:03.761Z,14.99
2022-11-05T12:54:03.860Z,14.82
2022-11-05T12:55:03.969Z,14.68
2022-11-05T12:56:04.075Z,14.85
2022-11-05T12:57:04.218Z,14.51
2022-11-05T12:58:04.321Z,14.45
2022-11-05T12:59:04.445Z,14.86
2022-11-05T13:00:04.556Z,14.85
2022-11-05T13:01:04.716Z,14.59
2022-11-05T13:02:04.941Z,14.62
2022-11-05T13:03:05.005Z,15.02
2022-11-05T13:04:05.124Z,14.81
2022-11-05T13:05:05.275Z,15.19
2022-11-05T13:06:06.174Z,16.05
2022-11-05T13:07:12.547Z,16.55
2022-11-05T13:08:05.643Z,17.04